createdAt,value
2019-04-04T09:27:24.155Z,989.98
2019-04-04T09:28:24.298Z,989.97
2019-04-04T09:29:25.599Z,989.89
2019-04-04T09:30:25.884Z,989.93
2019-04-04T09:31:26.064Z,989.89
2019-04-04T09:32:27.217Z,989.85
2019-04-04T09:33:26.332Z,989.87
2019-04-04T09:34:26.505Z,989.88
2019-04-04T09:35:26.699Z,989.88
2019-04-04T09:36:26.884Z,989.91
2019-04-04T09:37:27.074Z,989.84
2019-04-04T09:38:29.128Z,989.87
2019-04-04T09:39:28.450Z,989.82
2019-04-04T09:40:28.005Z,989.78
2019-04-04T09:41:27.795Z,989.83
2019-04-04T09:42:27.973Z,989.75
2019-04-04T09:43:28.177Z,989.75
2019-04-04T09:44:28.336Z,989.76
2019-04-04T09:45:28.509Z,989.73
2019-04-04T09:46:28.678Z,989.66
2019-04-04T09:47:28.850Z,989.69
2019-04-04T09:48:29.077Z,989.76
2019-04-04T09:49:29.246Z,989.75
2019-04-04T09:50:29.399Z,989.77
2019-04-04T09:51:29.531Z,989.76
2019-04-04T09:52:29.709Z,989.79
2019-04-04T09:53:29.905Z,989.77
2019-04-04T09:54:30.084Z,989.80
2019-04-04T09:55:30.234Z,989.76
2019-04-04T09:56:30.378Z,989.71
2019-04-04T09:57:30.539Z,989.87
2019-04-04T09:58:30.714Z,989.86
2019-04-04T09:59:30.871Z,989.84
2019-04-04T10:00:31.032Z,989.84
2019-04-04T10:01:31.172Z,989.86
2019-04-04T10:02:31.309Z,989.78
2019-04-04T10:03:31.429Z,989.80
2019-04-04T10:04:31.586Z,989.84
2019-04-04T10:05:31.742Z,989.86
2019-04-04T10:06:31.894Z,989.93
2019-04-04T10:07:32.026Z,989.92
2019-04-04T10:08:32.272Z,989.89
2019-04-04T10:09:32.433Z,990.00
2019-04-04T10:10:32.578Z,989.85
2019-04-04T10:11:32.746Z,989.89
2019-04-04T10:12:32.889Z,989.97
2019-04-04T10:13:33.035Z,989.97
2019-04-04T10:14:33.187Z,989.99
2019-04-04T10:15:33.327Z,989.99
2019-04-04T10:16:33.464Z,989.99
2019-04-04T10:17:33.639Z,990.03
2019-04-04T10:18:33.780Z,989.96
2019-04-04T10:19:33.939Z,989.90
2019-04-04T10:20:34.113Z,989.87
2019-04-04T10:21:34.296Z,989.84
2019-04-04T10:22:34.454Z,989.85
2019-04-04T10:23:34.611Z,989.82
2019-04-04T10:24:34.750Z,989.79
2019-04-04T10:25:34.914Z,989.84
2019-04-04T10:26:35.063Z,989.74
2019-04-04T10:27:35.215Z,989.76
2019-04-04T10:28:35.395Z,989.77
2019-04-04T10:29:35.549Z,989.76
2019-04-04T10:30:35.741Z,989.83
2019-04-04T10:31:35.923Z,989.79
2019-04-04T10:32:36.087Z,989.82
2019-04-04T10:33:36.247Z,989.90
2019-04-04T10:34:36.407Z,989.89
2019-04-04T10:35:36.553Z,989.86
2019-04-04T10:36:36.736Z,989.89
2019-04-04T10:37:36.884Z,989.86
2019-04-04T10:38:37.052Z,989.88
2019-04-04T10:39:37.205Z,989.79
2019-04-04T10:40:37.362Z,989.91
2019-04-04T10:41:37.529Z,989.87
2019-04-04T10:42:38.018Z,989.81
2019-04-04T10:43:37.890Z,989.84
2019-04-04T10:44:38.044Z,989.88
2019-04-04T10:45:38.235Z,989.84
2019-04-04T10:46:38.393Z,989.82
2019-04-04T10:47:38.555Z,989.79
2019-04-04T10:48:38.717Z,989.78
2019-04-04T10:49:38.862Z,989.71
2019-04-04T10:50:39.050Z,989.68
2019-04-04T10:51:39.246Z,989.68
2019-04-04T10:52:39.523Z,989.66
2019-04-04T10:53:39.576Z,989.69
2019-04-04T10:54:39.740Z,989.63
2019-04-04T10:55:39.896Z,989.64
2019-04-04T10:56:40.080Z,989.67
2019-04-04T10:57:40.259Z,989.67
2019-04-04T10:58:40.450Z,989.55
2019-04-04T10:59:40.647Z,989.63
2019-04-04T11:00:40.849Z,989.64
2019-04-04T11:01:41.060Z,989.57
2019-04-04T11:02:41.241Z,989.59
2019-04-04T11:03:41.425Z,989.56
2019-04-04T11:04:41.615Z,989.61
2019-04-04T11:05:41.782Z,989.63
2019-04-04T11:06:41.972Z,989.65
2019-04-04T11:07:42.162Z,989.72
2019-04-04T11:08:42.324Z,989.74
2019-04-04T11:09:44.353Z,989.73
2019-04-04T11:10:42.638Z,989.78
2019-04-04T11:11:42.782Z,989.73
2019-04-04T11:12:42.983Z,989.74
2019-04-04T11:13:43.152Z,989.75
2019-04-04T11:14:43.333Z,989.79
2019-04-04T11:15:43.541Z,989.75
2019-04-04T11:16:43.729Z,989.77
2019-04-04T11:17:43.954Z,989.84
2019-04-04T11:18:44.167Z,989.81
2019-04-04T11:19:44.365Z,989.74
2019-04-04T11:20:44.546Z,989.87
2019-04-04T11:21:44.732Z,989.87
2019-04-04T11:22:44.897Z,989.85
2019-04-04T11:23:45.045Z,989.87
2019-04-04T11:24:45.202Z,989.90
2019-04-04T11:25:45.373Z,989.88
2019-04-04T11:26:45.522Z,989.85
2019-04-04T11:27:45.635Z,989.86
2019-04-04T11:28:45.845Z,989.80
2019-04-04T11:29:46.063Z,989.85
2019-04-04T11:30:46.226Z,989.86
2019-04-04T11:31:46.409Z,989.77
2019-04-04T11:32:48.791Z,989.81
2019-04-04T11:33:46.737Z,989.81
2019-04-04T11:34:53.088Z,989.76
2019-04-04T11:35:49.043Z,989.82
2019-04-04T11:36:47.253Z,989.85
2019-04-04T11:37:47.403Z,989.91
2019-04-04T11:38:47.596Z,989.99
2019-04-04T11:39:54.566Z,990.07
2019-04-04T11:40:49.968Z,990.06
2019-04-04T11:41:48.176Z,990.05
2019-04-04T11:42:48.364Z,990.07
2019-04-04T11:43:48.570Z,990.06
2019-04-04T11:44:48.700Z,990.15
2019-04-04T11:45:48.859Z,990.14
2019-04-04T11:46:49.004Z,990.15
2019-04-04T11:47:49.185Z,990.15
2019-04-04T11:48:49.370Z,990.14
2019-04-04T11:49:49.498Z,990.23
2019-04-04T11:50:49.642Z,990.24
2019-04-04T11:51:49.775Z,990.25
2019-04-04T11:52:49.972Z,990.24
2019-04-04T11:53:50.122Z,990.23
2019-04-04T11:54:50.264Z,990.27
2019-04-04T11:55:50.479Z,990.25
2019-04-04T11:56:50.642Z,990.32
2019-04-04T11:57:50.833Z,990.28
2019-04-04T11:58:51.049Z,990.37
2019-04-04T11:59:51.224Z,990.33
2019-04-04T12:00:51.402Z,990.39
2019-04-04T12:01:51.610Z,990.43
2019-04-04T12:02:51.777Z,990.39
2019-04-04T12:03:52.948Z,990.45
2019-04-04T12:04:52.119Z,990.42
2019-04-04T12:05:52.292Z,990.40
2019-04-04T12:06:52.507Z,990.33
2019-04-04T12:07:52.691Z,990.41
2019-04-04T12:08:52.871Z,990.31
2019-04-04T12:09:53.075Z,990.30
2019-04-04T12:10:53.264Z,990.34
2019-04-04T12:11:53.469Z,990.30
2019-04-04T12:12:53.657Z,990.34
2019-04-04T12:13:53.841Z,990.27
2019-04-04T12:14:54.029Z,990.32
2019-04-04T12:15:54.227Z,990.33
2019-04-04T12:16:54.395Z,990.27
2019-04-04T12:17:54.542Z,990.30
2019-04-04T12:18:54.724Z,990.28
2019-04-04T12:19:54.885Z,990.30
2019-04-04T12:20:55.066Z,990.27
2019-04-04T12:21:55.213Z,990.27
2019-04-04T12:22:55.355Z,990.26
2019-04-04T12:23:55.546Z,990.24
2019-04-04T12:24:55.705Z,990.22
2019-04-04T12:25:55.891Z,990.25
2019-04-04T12:26:56.071Z,990.31
2019-04-04T12:27:56.239Z,990.23
2019-04-04T12:28:56.416Z,990.26
2019-04-04T12:29:56.590Z,990.33
2019-04-04T12:30:56.779Z,990.38
2019-04-04T12:31:56.975Z,990.40
2019-04-04T12:32:57.193Z,990.35
2019-04-04T12:33:57.373Z,990.41
2019-04-04T12:34:57.554Z,990.45
2019-04-04T12:35:57.767Z,990.40
2019-04-04T12:36:57.936Z,990.46
2019-04-04T12:37:58.163Z,990.48
2019-04-04T12:38:58.361Z,990.42
2019-04-04T12:39:58.553Z,990.40
2019-04-04T12:40:58.740Z,990.40
2019-04-04T12:41:58.975Z,990.36
2019-04-04T12:42:59.157Z,990.43
2019-04-04T12:43:59.388Z,990.38
2019-04-04T12:44:59.583Z,990.35
2019-04-04T12:45:59.778Z,990.40
2019-04-04T12:46:59.969Z,990.35
2019-04-04T12:48:00.176Z,990.35
2019-04-04T12:49:00.430Z,990.31
2019-04-04T12:50:00.490Z,990.25
2019-04-04T12:51:00.707Z,990.30
2019-04-04T12:52:00.896Z,990.23
2019-04-04T12:53:01.083Z,990.22
2019-04-04T12:54:01.276Z,990.16
2019-04-04T12:55:01.447Z,990.12
2019-04-04T12:56:01.628Z,990.13
2019-04-04T12:57:01.776Z,990.14
2019-04-04T12:58:01.936Z,990.19
2019-04-04T12:59:02.122Z,990.12
2019-04-04T13:00:02.295Z,990.16
2019-04-04T13:01:02.451Z,990.16
2019-04-04T13:02:02.626Z,990.05
2019-04-04T13:03:02.789Z,990.04
2019-04-04T13:04:02.959Z,989.91
2019-04-04T13:05:03.109Z,989.94
2019-04-04T13:06:03.308Z,990.02
2019-04-04T13:07:03.475Z,989.96
2019-04-04T13:08:03.646Z,989.98
2019-04-04T13:09:03.787Z,989.98
2019-04-04T13:10:11.512Z,990.03
2019-04-04T13:11:06.115Z,990.05
2019-04-04T13:12:04.330Z,990.00
2019-04-04T13:13:04.510Z,990.08
2019-04-04T13:14:04.665Z,990.06
2019-04-04T13:15:04.843Z,990.07
2019-04-04T13:16:04.989Z,990.04
2019-04-04T13:17:05.109Z,990.04
2019-04-04T13:18:05.264Z,990.02
2019-04-04T13:19:05.434Z,990.12
2019-04-04T13:20:05.625Z,990.15
2019-04-04T13:21:05.757Z,990.16
2019-04-04T13:22:05.927Z,990.17
2019-04-04T13:23:06.147Z,990.25
2019-04-04T13:24:06.331Z,990.31
2019-04-04T13:25:06.570Z,990.34
2019-04-04T13:26:06.763Z,990.41
2019-04-04T13:27:06.949Z,990.48
2019-04-04T13:28:07.152Z,990.49
2019-04-04T13:29:07.315Z,990.50
2019-04-04T13:30:07.528Z,990.51
2019-04-04T13:31:07.722Z,990.50
2019-04-04T13:32:07.905Z,990.52
2019-04-04T13:33:08.090Z,990.59
2019-04-04T13:34:08.274Z,990.62
2019-04-04T13:35:08.445Z,990.59
2019-04-04T13:36:08.648Z,990.65
2019-04-04T13:37:08.820Z,990.69
2019-04-04T13:38:09.011Z,990.70
2019-04-04T13:39:09.171Z,990.74
2019-04-04T13:40:09.323Z,990.76
2019-04-04T13:41:20.987Z,990.75
2019-04-04T13:42:11.722Z,990.66
2019-04-04T13:43:09.883Z,990.72
2019-04-04T13:44:10.076Z,990.72
2019-04-04T13:45:10.266Z,990.60
2019-04-04T13:46:11.114Z,990.65
2019-04-04T13:47:11.581Z,990.71
2019-04-04T13:48:12.685Z,990.73
2019-04-04T13:49:11.875Z,990.77
2019-04-04T13:50:12.632Z,990.74
2019-04-04T13:51:12.256Z,990.74
2019-04-04T13:52:11.728Z,990.72
2019-04-04T13:53:12.680Z,990.79
2019-04-04T13:54:11.822Z,990.88
2019-04-04T13:55:11.988Z,990.86
2019-04-04T13:56:12.168Z,990.85
2019-04-04T13:57:12.323Z,990.77
2019-04-04T13:58:12.531Z,990.78
2019-04-04T13:59:12.696Z,990.77
2019-04-04T14:00:12.876Z,990.76
2019-04-04T14:01:13.053Z,990.76
2019-04-04T14:02:13.214Z,990.82
2019-04-04T14:03:13.392Z,990.86
2019-04-04T14:04:13.559Z,990.86
2019-04-04T14:05:14.503Z,990.91
2019-04-04T14:06:14.952Z,990.89
2019-04-04T14:07:14.129Z,990.95
2019-04-04T14:08:14.576Z,990.93
2019-04-04T14:09:15.528Z,990.89
2019-04-04T14:10:17.099Z,990.98
2019-04-04T14:11:15.803Z,990.99
2019-04-04T14:12:15.053Z,991.02
2019-04-04T14:13:15.221Z,991.05
2019-04-04T14:14:15.359Z,991.07
2019-04-04T14:15:15.525Z,991.08
2019-04-04T14:16:15.661Z,991.08
2019-04-04T14:17:15.810Z,991.05
2019-04-04T14:18:15.970Z,991.11
2019-04-04T14:19:16.181Z,991.08
2019-04-04T14:20:16.357Z,991.10
2019-04-04T14:21:16.521Z,991.02
2019-04-04T14:22:16.647Z,991.03
2019-04-04T14:23:16.804Z,991.01
2019-04-04T14:24:16.960Z,991.05
2019-04-04T14:25:17.151Z,991.06
2019-04-04T14:26:17.290Z,991.15
2019-04-04T14:27:17.434Z,991.08
2019-04-04T14:28:17.582Z,991.13
2019-04-04T14:29:27.404Z,991.17
2019-04-04T14:30:19.924Z,991.14
2019-04-04T14:31:18.155Z,991.22
2019-04-04T14:32:21.019Z,991.17
2019-04-04T14:33:18.519Z,991.17
2019-04-04T14:34:18.676Z,991.19
2019-04-04T14:35:18.834Z,991.16
2019-04-04T14:36:19.031Z,991.16
2019-04-04T14:37:19.161Z,991.19
2019-04-04T14:38:19.315Z,991.15
2019-04-04T14:39:19.447Z,991.09
2019-04-04T14:40:19.594Z,991.06
2019-04-04T14:41:19.737Z,991.07
2019-04-04T14:42:19.913Z,991.15
2019-04-04T14:43:20.090Z,991.02
2019-04-04T14:44:20.255Z,991.04
2019-04-04T14:45:20.400Z,991.07
2019-04-04T14:46:20.528Z,991.05
2019-04-04T14:47:20.717Z,991.05
2019-04-04T14:48:20.880Z,991.01
2019-04-04T14:49:21.083Z,991.03
2019-04-04T14:50:21.232Z,991.03
2019-04-04T14:51:21.383Z,991.10
2019-04-04T14:52:24.107Z,991.17
2019-04-04T14:53:21.761Z,991.10
2019-04-04T14:54:21.956Z,991.12
2019-04-04T14:55:22.140Z,991.14
2019-04-04T14:56:22.328Z,991.14
2019-04-04T14:57:22.535Z,991.10
2019-04-04T14:58:22.689Z,991.22
2019-04-04T14:59:22.856Z,991.26
2019-04-04T15:00:23.042Z,991.26
2019-04-04T15:01:23.204Z,991.21
2019-04-04T15:02:23.414Z,991.20
2019-04-04T15:03:23.568Z,991.31
2019-04-04T15:04:23.740Z,991.30
2019-04-04T15:05:23.915Z,991.33
2019-04-04T15:06:24.076Z,991.38
2019-04-04T15:07:24.275Z,991.51
2019-04-04T15:08:24.413Z,991.46
2019-04-04T15:09:24.579Z,991.51
2019-04-04T15:10:24.734Z,991.54
2019-04-04T15:11:25.926Z,991.49
2019-04-04T15:12:25.093Z,991.48
2019-04-04T15:13:25.281Z,991.56
2019-04-04T15:14:25.492Z,991.53
2019-04-04T15:15:26.430Z,991.58
2019-04-04T15:16:26.824Z,991.49
2019-04-04T15:17:25.942Z,991.55
2019-04-04T15:18:26.106Z,991.46
2019-04-04T15:19:26.271Z,991.52
2019-04-04T15:20:26.421Z,991.64
2019-04-04T15:21:26.572Z,991.59
2019-04-04T15:22:26.796Z,991.57
2019-04-04T15:23:26.970Z,991.41
2019-04-04T15:24:27.128Z,991.35
2019-04-04T15:25:27.303Z,991.36
2019-04-04T15:26:27.506Z,991.22
2019-04-04T15:27:27.702Z,991.35
2019-04-04T15:28:27.907Z,991.34
2019-04-04T15:29:28.097Z,991.36
2019-04-04T15:30:28.311Z,991.33
2019-04-04T15:31:28.487Z,991.29
2019-04-04T15:32:28.647Z,991.32
2019-04-04T15:33:28.851Z,991.31
2019-04-04T15:34:29.014Z,991.35
2019-04-04T15:35:29.224Z,991.41
2019-04-04T15:36:29.424Z,991.38
2019-04-04T15:37:30.613Z,991.32
2019-04-04T15:38:29.776Z,991.34
2019-04-04T15:39:29.964Z,991.44
2019-04-04T15:40:30.197Z,991.38
2019-04-04T15:41:36.689Z,991.39
2019-04-04T15:42:32.513Z,991.43
2019-04-04T15:43:30.654Z,991.42
2019-04-04T15:44:30.834Z,991.45
2019-04-04T15:45:31.050Z,991.48
2019-04-04T15:46:31.252Z,991.55
2019-04-04T15:47:31.508Z,991.59
2019-04-04T15:48:31.578Z,991.62
2019-04-04T15:49:31.757Z,991.56
2019-04-04T15:50:31.939Z,991.54
2019-04-04T15:51:32.159Z,991.49
2019-04-04T15:52:32.314Z,991.45
2019-04-04T15:53:32.492Z,991.52
2019-04-04T15:54:32.651Z,991.57
2019-04-04T15:55:32.810Z,991.55
2019-04-04T15:56:33.003Z,991.54
2019-04-04T15:57:33.198Z,991.52
2019-04-04T15:58:33.370Z,991.47
2019-04-04T15:59:33.610Z,991.48
2019-04-04T16:00:33.774Z,991.46
2019-04-04T16:01:33.976Z,991.42
2019-04-04T16:02:34.142Z,991.42
2019-04-04T16:03:34.338Z,991.53
2019-04-04T16:04:34.517Z,991.55
2019-04-04T16:05:34.695Z,991.62
2019-04-04T16:06:34.916Z,991.65
2019-04-04T16:07:35.101Z,991.71
2019-04-04T16:08:35.308Z,991.75
2019-04-04T16:09:36.002Z,991.78
2019-04-04T16:10:35.643Z,991.81
2019-04-04T16:11:48.490Z,991.77
2019-04-04T16:12:36.992Z,991.88
2019-04-04T16:13:36.135Z,991.91
2019-04-04T16:14:36.369Z,991.97
2019-04-04T16:15:36.536Z,991.97
2019-04-04T16:16:36.710Z,991.97
2019-04-04T16:17:37.905Z,992.11
2019-04-04T16:18:37.031Z,992.06
2019-04-04T16:19:37.247Z,992.02
2019-04-04T16:20:37.407Z,992.04
2019-04-04T16:21:37.582Z,991.99
2019-04-04T16:22:37.765Z,992.03
2019-04-04T16:23:37.923Z,992.05
2019-04-04T16:24:38.146Z,991.92
2019-04-04T16:25:38.334Z,991.95
2019-04-04T16:26:38.517Z,992.05
2019-04-04T16:27:38.693Z,991.97
2019-04-04T16:28:38.870Z,992.01
2019-04-04T16:29:39.058Z,992.10
2019-04-04T16:30:39.215Z,992.09
2019-04-04T16:31:39.363Z,992.07
2019-04-04T16:32:39.524Z,992.10
2019-04-04T16:33:40.686Z,992.05
2019-04-04T16:34:39.951Z,992.02
2019-04-04T16:35:40.148Z,991.96
2019-04-04T16:36:40.294Z,992.01
2019-04-04T16:37:40.455Z,991.93
2019-04-04T16:38:40.599Z,991.97
2019-04-04T16:39:40.788Z,991.95
2019-04-04T16:40:40.936Z,991.95
2019-04-04T16:41:41.112Z,991.99
2019-04-04T16:42:41.286Z,992.01
2019-04-04T16:43:41.449Z,992.03
2019-04-04T16:44:41.618Z,992.08
2019-04-04T16:45:41.797Z,992.10
2019-04-04T16:46:41.931Z,992.05
2019-04-04T16:47:42.084Z,992.08
2019-04-04T16:48:42.236Z,992.14
2019-04-04T16:49:42.397Z,992.08
2019-04-04T16:50:42.540Z,992.08
2019-04-04T16:51:42.688Z,992.08
2019-04-04T16:52:42.834Z,992.09
2019-04-04T16:53:43.007Z,992.09
2019-04-04T16:54:43.146Z,992.07
2019-04-04T16:55:43.290Z,992.03
2019-04-04T16:56:43.456Z,992.05
2019-04-04T16:57:43.780Z,992.02
2019-04-04T16:58:43.807Z,992.04
2019-04-04T16:59:43.945Z,992.05
2019-04-04T17:00:45.118Z,992.08
2019-04-04T17:01:44.223Z,992.11
2019-04-04T17:02:44.346Z,992.12
2019-04-04T17:03:44.517Z,992.07
2019-04-04T17:04:44.704Z,992.11
2019-04-04T17:05:44.874Z,992.01
2019-04-04T17:06:45.092Z,992.06
2019-04-04T17:07:45.285Z,992.19
2019-04-04T17:08:45.459Z,992.18
2019-04-04T17:09:45.647Z,992.20
2019-04-04T17:10:45.844Z,992.19
2019-04-04T17:11:46.024Z,992.15
2019-04-04T17:12:46.191Z,992.17
2019-04-04T17:13:46.391Z,992.21
2019-04-04T17:14:46.595Z,992.19
2019-04-04T17:15:46.766Z,992.10
2019-04-04T17:16:46.965Z,992.16
2019-04-04T17:17:47.150Z,992.20
2019-04-04T17:18:47.342Z,992.20
2019-04-04T17:19:47.548Z,992.18
2019-04-04T17:20:47.758Z,992.17
2019-04-04T17:21:47.957Z,992.20
2019-04-04T17:22:48.185Z,992.24
2019-04-04T17:23:48.360Z,992.26
2019-04-04T17:24:48.555Z,992.30
2019-04-04T17:25:48.766Z,992.37
2019-04-04T17:26:48.902Z,992.35
2019-04-04T17:27:49.045Z,992.39
2019-04-04T17:28:49.194Z,992.38
2019-04-04T17:29:49.752Z,992.43
2019-04-04T17:30:49.621Z,992.43
2019-04-04T17:31:49.796Z,992.39
2019-04-04T17:32:50.330Z,992.42
2019-04-04T17:33:50.403Z,992.38
2019-04-04T17:34:50.330Z,992.35
2019-04-04T17:35:51.001Z,992.44
2019-04-04T17:36:50.671Z,992.43
2019-04-04T17:37:50.852Z,992.47
2019-04-04T17:38:51.049Z,992.54
2019-04-04T17:39:51.210Z,992.53
2019-04-04T17:40:51.379Z,992.68
2019-04-04T17:41:52.047Z,992.65
2019-04-04T17:42:52.128Z,992.60
2019-04-04T17:43:51.922Z,992.65
2019-04-04T17:44:52.574Z,992.71
2019-04-04T17:45:52.146Z,992.66
2019-04-04T17:46:52.727Z,992.63
2019-04-04T17:47:53.560Z,992.66
2019-04-04T17:48:52.791Z,992.63
2019-04-04T17:49:52.853Z,992.65
2019-04-04T17:50:53.048Z,992.64
2019-04-04T17:51:53.622Z,992.63
2019-04-04T17:52:53.916Z,992.69
2019-04-04T17:53:53.742Z,992.60
2019-04-04T17:54:54.752Z,992.65
2019-04-04T17:55:55.536Z,992.61
2019-04-04T17:56:55.070Z,992.60
2019-04-04T17:57:54.412Z,992.63
2019-04-04T17:58:54.405Z,992.60
2019-04-04T17:59:54.573Z,992.58
2019-04-04T18:00:54.752Z,992.61
2019-04-04T18:01:54.965Z,992.57
2019-04-04T18:02:55.172Z,992.62
2019-04-04T18:03:55.333Z,992.60
2019-04-04T18:04:55.536Z,992.66
2019-04-04T18:05:55.732Z,992.77
2019-04-04T18:06:55.920Z,992.79
2019-04-04T18:07:56.116Z,992.88
2019-04-04T18:08:56.266Z,992.90
2019-04-04T18:09:56.477Z,992.93
2019-04-04T18:10:56.652Z,992.87
2019-04-04T18:11:56.793Z,992.90
2019-04-04T18:12:56.955Z,992.93
2019-04-04T18:13:57.112Z,992.85
2019-04-04T18:14:57.303Z,992.90
2019-04-04T18:15:57.451Z,992.81
2019-04-04T18:16:57.609Z,992.92
2019-04-04T18:17:57.785Z,992.98
2019-04-04T18:18:57.955Z,992.94
2019-04-04T18:19:58.103Z,992.97
2019-04-04T18:20:58.280Z,992.97
2019-04-04T18:21:58.484Z,992.96
2019-04-04T18:22:58.642Z,992.85
2019-04-04T18:23:58.808Z,992.85
2019-04-04T18:24:59.016Z,992.84
2019-04-04T18:25:59.215Z,992.88
2019-04-04T18:26:59.375Z,992.99
2019-04-04T18:27:59.650Z,992.96
2019-04-04T18:28:59.807Z,993.10
2019-04-04T18:30:00.173Z,993.09
2019-04-04T18:31:00.254Z,993.16
2019-04-04T18:32:00.495Z,993.25
2019-04-04T18:33:00.667Z,993.18
2019-04-04T18:34:00.934Z,993.19
2019-04-04T18:35:01.346Z,993.18
2019-04-04T18:36:01.345Z,993.23
2019-04-04T18:37:01.435Z,993.28
2019-04-04T18:38:01.626Z,993.41
2019-04-04T18:39:01.839Z,993.37
2019-04-04T18:40:02.034Z,993.38
2019-04-04T18:41:02.256Z,993.41
2019-04-04T18:42:02.435Z,993.45
2019-04-04T18:43:02.624Z,993.36
2019-04-04T18:44:02.808Z,993.41
2019-04-04T18:45:03.001Z,993.44
2019-04-04T18:46:03.203Z,993.34
2019-04-04T18:47:03.396Z,993.39
2019-04-04T18:48:03.589Z,993.36
2019-04-04T18:49:03.760Z,993.37
2019-04-04T18:50:03.932Z,993.34
2019-04-04T18:51:04.103Z,993.35
2019-04-04T18:52:04.272Z,993.36
2019-04-04T18:53:04.524Z,993.31
2019-04-04T18:54:04.683Z,993.37
2019-04-04T18:55:04.824Z,993.41
2019-04-04T18:56:05.970Z,993.44
2019-04-04T18:57:05.210Z,993.43
2019-04-04T18:58:05.372Z,993.49
2019-04-04T18:59:05.521Z,993.38
2019-04-04T19:00:05.640Z,993.48
2019-04-04T19:01:05.786Z,993.45
2019-04-04T19:02:05.996Z,993.42
2019-04-04T19:03:06.109Z,993.48
2019-04-04T19:04:06.385Z,993.46
2019-04-04T19:05:06.543Z,993.43
2019-04-04T19:06:06.716Z,993.50
2019-04-04T19:07:06.886Z,993.45
2019-04-04T19:08:07.033Z,993.43
2019-04-04T19:09:14.813Z,993.49
2019-04-04T19:10:09.384Z,993.45
2019-04-04T19:11:07.591Z,993.51
2019-04-04T19:12:07.739Z,993.50
2019-04-04T19:13:07.918Z,993.43
2019-04-04T19:14:08.134Z,993.34
2019-04-04T19:15:08.325Z,993.31
2019-04-04T19:16:08.519Z,993.23
2019-04-04T19:17:08.675Z,993.27
2019-04-04T19:18:08.793Z,993.25
2019-04-04T19:19:08.939Z,993.36
2019-04-04T19:20:10.212Z,993.37
2019-04-04T19:21:10.308Z,993.39
2019-04-04T19:22:09.543Z,993.42
2019-04-04T19:23:09.692Z,993.48
2019-04-04T19:24:09.836Z,993.49
2019-04-04T19:25:09.991Z,993.56
2019-04-04T19:26:10.163Z,993.47
2019-04-04T19:27:10.353Z,993.63
2019-04-04T19:28:10.558Z,993.59
2019-04-04T19:29:11.769Z,993.71
2019-04-04T19:30:10.904Z,993.72
2019-04-04T19:31:11.118Z,993.76
2019-04-04T19:32:11.289Z,993.75
2019-04-04T19:33:11.487Z,993.75
2019-04-04T19:34:11.726Z,993.74
2019-04-04T19:35:11.934Z,993.68
2019-04-04T19:36:12.148Z,993.75
2019-04-04T19:37:12.362Z,993.75
2019-04-04T19:38:12.580Z,993.71
2019-04-04T19:39:12.790Z,993.79
2019-04-04T19:40:12.990Z,993.78
2019-04-04T19:41:13.233Z,993.77
2019-04-04T19:42:13.429Z,993.75
2019-04-04T19:43:18.371Z,993.75
2019-04-04T19:44:14.833Z,993.74
2019-04-04T19:45:14.012Z,993.85
2019-04-04T19:46:14.241Z,993.83
2019-04-04T19:47:14.455Z,993.83
2019-04-04T19:48:14.653Z,993.88
2019-04-04T19:49:14.856Z,993.89
2019-04-04T19:50:15.077Z,993.91
2019-04-04T19:51:15.294Z,993.94
2019-04-04T19:52:15.516Z,993.91
2019-04-04T19:53:15.725Z,994.01
2019-04-04T19:54:15.902Z,994.01
2019-04-04T19:55:16.097Z,994.02
2019-04-04T19:56:16.275Z,994.02
2019-04-04T19:57:17.033Z,994.01
2019-04-04T19:58:17.646Z,994.02
2019-04-04T19:59:16.795Z,993.93
2019-04-04T20:00:16.998Z,993.94
2019-04-04T20:01:17.173Z,993.94
2019-04-04T20:02:18.400Z,993.94
2019-04-04T20:03:17.629Z,993.87
2019-04-04T20:04:17.814Z,993.98
2019-04-04T20:05:17.998Z,993.98
2019-04-04T20:06:18.166Z,993.99
2019-04-04T20:07:18.356Z,993.95
2019-04-04T20:08:18.567Z,993.88
2019-04-04T20:09:18.753Z,993.83
2019-04-04T20:10:18.932Z,993.78
2019-04-04T20:11:19.114Z,993.79
2019-04-04T20:12:19.290Z,993.76
2019-04-04T20:13:30.388Z,993.74
2019-04-04T20:14:21.616Z,993.78
2019-04-04T20:15:19.861Z,993.83
2019-04-04T20:16:20.075Z,993.83
2019-04-04T20:17:20.397Z,993.87
2019-04-04T20:18:20.413Z,993.92
2019-04-04T20:19:20.562Z,993.89
2019-04-04T20:20:20.751Z,993.99
2019-04-04T20:21:20.913Z,994.00
2019-04-04T20:22:21.059Z,993.98
2019-04-04T20:23:21.244Z,994.03
2019-04-04T20:24:21.433Z,993.91
2019-04-04T20:25:21.635Z,993.85
2019-04-04T20:26:21.814Z,993.77
2019-04-04T20:27:22.031Z,993.87
2019-04-04T20:28:22.239Z,993.78
2019-04-04T20:29:22.448Z,993.87
2019-04-04T20:30:22.679Z,993.83
2019-04-04T20:31:22.864Z,993.79
2019-04-04T20:32:23.108Z,993.79
2019-04-04T20:33:23.369Z,993.79
2019-04-04T20:34:24.482Z,993.79
2019-04-04T20:35:23.650Z,993.85
2019-04-04T20:36:24.176Z,993.84
2019-04-04T20:37:24.066Z,993.90
2019-04-04T20:38:24.226Z,993.90
2019-04-04T20:39:24.311Z,993.87
2019-04-04T20:40:24.569Z,993.95
2019-04-04T20:41:24.702Z,993.88
2019-04-04T20:42:24.838Z,993.88
2019-04-04T20:43:25.026Z,993.91
2019-04-04T20:44:25.259Z,993.78
2019-04-04T20:45:25.355Z,993.82
2019-04-04T20:46:25.554Z,993.80
2019-04-04T20:47:25.743Z,993.82
2019-04-04T20:48:25.915Z,993.84
2019-04-04T20:49:26.168Z,993.90
2019-04-04T20:50:26.281Z,993.90
2019-04-04T20:51:26.507Z,993.96
2019-04-04T20:52:26.715Z,993.84
2019-04-04T20:53:26.936Z,993.84
2019-04-04T20:54:27.152Z,993.88
2019-04-04T20:55:27.381Z,993.91
2019-04-04T20:56:27.561Z,993.90
2019-04-04T20:57:28.709Z,993.96
2019-04-04T20:58:31.145Z,994.00
2019-04-04T20:59:28.442Z,993.98
2019-04-04T21:00:28.301Z,994.08
2019-04-04T21:01:28.510Z,994.05
2019-04-04T21:02:28.680Z,994.13
2019-04-04T21:03:28.879Z,994.06
2019-04-04T21:04:29.059Z,994.09
2019-04-04T21:05:29.246Z,994.11
2019-04-04T21:06:29.493Z,994.14
2019-04-04T21:07:29.584Z,994.11
2019-04-04T21:08:29.781Z,994.12
2019-04-04T21:09:29.988Z,994.14
2019-04-04T21:10:30.245Z,994.09
2019-04-04T21:11:30.310Z,994.02
2019-04-04T21:12:30.489Z,994.08
2019-04-04T21:13:30.669Z,994.10
2019-04-04T21:14:30.844Z,994.14
2019-04-04T21:15:31.034Z,994.22
2019-04-04T21:16:31.217Z,994.19
2019-04-04T21:17:31.420Z,994.25
2019-04-04T21:18:31.601Z,994.17
2019-04-04T21:19:31.818Z,994.19
2019-04-04T21:20:31.994Z,994.21
2019-04-04T21:21:32.150Z,994.21
2019-04-04T21:22:33.339Z,994.11
2019-04-04T21:23:32.467Z,994.12
2019-04-04T21:24:32.645Z,994.13
2019-04-04T21:25:32.844Z,994.17
2019-04-04T21:26:33.026Z,994.20
2019-04-04T21:27:33.296Z,994.24
2019-04-04T21:28:33.359Z,994.25
2019-04-04T21:29:33.526Z,994.26
2019-04-04T21:30:33.700Z,994.33
2019-04-04T21:31:33.855Z,994.28
2019-04-04T21:32:34.049Z,994.21
2019-04-04T21:33:34.213Z,994.22
2019-04-04T21:34:34.408Z,994.18
2019-04-04T21:35:34.575Z,994.17
2019-04-04T21:36:34.755Z,994.22
2019-04-04T21:37:34.913Z,994.23
2019-04-04T21:38:35.167Z,994.28
2019-04-04T21:39:35.343Z,994.26
2019-04-04T21:40:35.507Z,994.29
2019-04-04T21:41:35.664Z,994.31
2019-04-04T21:42:35.852Z,994.33
2019-04-04T21:43:36.086Z,994.34
2019-04-04T21:44:36.301Z,994.33
2019-04-04T21:45:36.460Z,994.39
2019-04-04T21:46:36.625Z,994.29
2019-04-04T21:47:37.814Z,994.34
2019-04-04T21:48:36.998Z,994.36
2019-04-04T21:49:37.189Z,994.32
2019-04-04T21:50:38.357Z,994.30
2019-04-04T21:51:38.560Z,994.30
2019-04-04T21:52:37.719Z,994.25
2019-04-04T21:53:37.918Z,994.24
2019-04-04T21:54:38.104Z,994.24
2019-04-04T21:55:38.307Z,994.24
2019-04-04T21:56:38.518Z,994.22
2019-04-04T21:57:38.740Z,994.22